Terminal Aerodrome Forecast
Issued by NWS

Home | Current Version | Previous Version | Text Only | Print | Product List | Glossary On
Versions: 1 2 3 4 5 6 7 8 9 10 11 12 13 14 15 16
000
FTUS46 KSGX 221700
TAFSNA
TAF
KSNA 221724Z 2218/2318 VRB05KT P6SM SCT012
     FM221900 22009KT P6SM SKC
     FM230700 20005KT P6SM BKN012
     FM231700 VRB05KT P6SM FEW012=

USA.gov is the U.S. government's official web portal to all federal, state and local government web resources and services.